Honeywell Corners, New York
Current Conditions -  °F | °C
As of 10:15 PM on Saturday 20 Dec 2014 (Local Time) from KNY0 Reporting Station
Overcast Overcast  
Wind Chill: -5°   Ceiling: 2100
Heat Index: -5°   Visibility: 10mi
Dew Point: -8°   Wind: 0mph
Humidity: 82%   Direction: NA
Pressure: 30.28"   Gusts: NA
Location:  43.0744°N, 74.1473°W
Report Text: KNY0 210315Z AUTO 00000KT 10SM OVC021 M05/M07 A3028 RMK AO2 T10481075
Loading
Personal Weather Stations






























Interactive Weather Map New forecast layout! Learn more

10-Day Weather Forecast

Advertisements
Track Severe Weather on mobile